sensor_id;sensor_type;location;lat;lon;timestamp;P1;durP1;ratioP1;P2;durP2;ratioP2
41043;SDS011;51680;49.806;18.774;2023-06-04T00:00:59;8.68;;;3.22;;
41043;SDS011;51680;49.806;18.774;2023-06-04T00:04:01;8.40;;;2.53;;
41043;SDS011;51680;49.806;18.774;2023-06-04T00:07:03;5.72;;;2.50;;
41043;SDS011;51680;49.806;18.774;2023-06-04T00:10:06;6.75;;;2.47;;
41043;SDS011;51680;49.806;18.774;2023-06-04T00:16:10;6.82;;;2.63;;
41043;SDS011;51680;49.806;18.774;2023-06-04T00:19:12;10.73;;;2.85;;
41043;SDS011;51680;49.806;18.774;2023-06-04T00:22:14;5.70;;;2.85;;
41043;SDS011;51680;49.806;18.774;2023-06-04T00:25:17;7.93;;;2.88;;
41043;SDS011;51680;49.806;18.774;2023-06-04T00:28:19;8.13;;;3.10;;
41043;SDS011;51680;49.806;18.774;2023-06-04T00:31:21;9.60;;;3.17;;
41043;SDS011;51680;49.806;18.774;2023-06-04T00:34:23;10.90;;;3.70;;
41043;SDS011;51680;49.806;18.774;2023-06-04T00:37:25;8.35;;;4.13;;
41043;SDS011;51680;49.806;18.774;2023-06-04T00:40:28;8.70;;;3.38;;
41043;SDS011;51680;49.806;18.774;2023-06-04T00:43:30;11.33;;;4.47;;
41043;SDS011;51680;49.806;18.774;2023-06-04T00:46:32;11.25;;;3.58;;
41043;SDS011;51680;49.806;18.774;2023-06-04T00:49:37;7.75;;;3.10;;
41043;SDS011;51680;49.806;18.774;2023-06-04T00:52:39;7.20;;;3.42;;
41043;SDS011;51680;49.806;18.774;2023-06-04T00:55:43;12.73;;;3.30;;
41043;SDS011;51680;49.806;18.774;2023-06-04T00:58:44;12.80;;;3.53;;
41043;SDS011;51680;49.806;18.774;2023-06-04T01:01:49;10.90;;;2.78;;
41043;SDS011;51680;49.806;18.774;2023-06-04T01:04:59;6.00;;;2.90;;
41043;SDS011;51680;49.806;18.774;2023-06-04T01:08:09;6.93;;;2.92;;
41043;SDS011;51680;49.806;18.774;2023-06-04T01:11:13;9.30;;;3.45;;
41043;SDS011;51680;49.806;18.774;2023-06-04T01:14:15;9.18;;;3.63;;
41043;SDS011;51680;49.806;18.774;2023-06-04T01:17:21;7.55;;;3.03;;
41043;SDS011;51680;49.806;18.774;2023-06-04T01:20:30;6.55;;;2.83;;
41043;SDS011;51680;49.806;18.774;2023-06-04T01:23:37;9.10;;;3.17;;
41043;SDS011;51680;49.806;18.774;2023-06-04T01:26:48;9.02;;;3.95;;
41043;SDS011;51680;49.806;18.774;2023-06-04T01:29:52;13.30;;;5.30;;
41043;SDS011;51680;49.806;18.774;2023-06-04T01:33:16;16.92;;;5.75;;
41043;SDS011;51680;49.806;18.774;2023-06-04T01:36:20;24.52;;;6.28;;
41043;SDS011;51680;49.806;18.774;2023-06-04T01:39:22;16.48;;;6.05;;
41043;SDS011;51680;49.806;18.774;2023-06-04T01:42:25;26.05;;;6.63;;
41043;SDS011;51680;49.806;18.774;2023-06-04T01:45:27;13.87;;;5.77;;
41043;SDS011;51680;49.806;18.774;2023-06-04T01:48:29;26.65;;;6.22;;
41043;SDS011;51680;49.806;18.774;2023-06-04T01:51:32;17.75;;;5.57;;
41043;SDS011;51680;49.806;18.774;2023-06-04T01:54:34;18.17;;;5.45;;
41043;SDS011;51680;49.806;18.774;2023-06-04T01:57:37;13.43;;;4.97;;
41043;SDS011;51680;49.806;18.774;2023-06-04T02:00:39;17.25;;;4.53;;
41043;SDS011;51680;49.806;18.774;2023-06-04T02:03:42;12.00;;;3.55;;
41043;SDS011;51680;49.806;18.774;2023-06-04T02:06:44;17.58;;;5.72;;
41043;SDS011;51680;49.806;18.774;2023-06-04T02:09:46;9.85;;;3.80;;
41043;SDS011;51680;49.806;18.774;2023-06-04T02:12:54;11.77;;;4.10;;
41043;SDS011;51680;49.806;18.774;2023-06-04T02:15:57;13.40;;;4.50;;
41043;SDS011;51680;49.806;18.774;2023-06-04T02:18:58;13.20;;;4.13;;
41043;SDS011;51680;49.806;18.774;2023-06-04T02:22:01;11.93;;;4.50;;
41043;SDS011;51680;49.806;18.774;2023-06-04T02:25:03;15.98;;;5.28;;
41043;SDS011;51680;49.806;18.774;2023-06-04T02:28:07;12.93;;;5.05;;
41043;SDS011;51680;49.806;18.774;2023-06-04T02:31:09;12.02;;;4.32;;
41043;SDS011;51680;49.806;18.774;2023-06-04T02:34:11;13.30;;;4.95;;
41043;SDS011;51680;49.806;18.774;2023-06-04T02:37:13;11.80;;;4.97;;
41043;SDS011;51680;49.806;18.774;2023-06-04T02:40:15;10.38;;;4.30;;
41043;SDS011;51680;49.806;18.774;2023-06-04T02:43:18;12.38;;;4.50;;
41043;SDS011;51680;49.806;18.774;2023-06-04T02:46:20;11.68;;;4.82;;
41043;SDS011;51680;49.806;18.774;2023-06-04T02:49:22;12.23;;;4.20;;
41043;SDS011;51680;49.806;18.774;2023-06-04T02:52:23;8.93;;;4.65;;
41043;SDS011;51680;49.806;18.774;2023-06-04T02:55:25;10.13;;;4.60;;
41043;SDS011;51680;49.806;18.774;2023-06-04T02:58:28;8.18;;;3.83;;
41043;SDS011;51680;49.806;18.774;2023-06-04T03:01:31;9.27;;;3.90;;
41043;SDS011;51680;49.806;18.774;2023-06-04T03:04:33;8.98;;;4.20;;
41043;SDS011;51680;49.806;18.774;2023-06-04T03:07:36;7.65;;;3.65;;
41043;SDS011;51680;49.806;18.774;2023-06-04T03:10:38;14.30;;;4.68;;
41043;SDS011;51680;49.806;18.774;2023-06-04T03:13:41;12.52;;;3.88;;
41043;SDS011;51680;49.806;18.774;2023-06-04T03:16:43;11.00;;;4.68;;
41043;SDS011;51680;49.806;18.774;2023-06-04T03:19:46;11.23;;;4.25;;
41043;SDS011;51680;49.806;18.774;2023-06-04T03:22:48;14.82;;;3.90;;
41043;SDS011;51680;49.806;18.774;2023-06-04T03:25:49;11.55;;;4.63;;
41043;SDS011;51680;49.806;18.774;2023-06-04T03:28:53;8.32;;;4.22;;
41043;SDS011;51680;49.806;18.774;2023-06-04T03:31:56;11.38;;;4.10;;
41043;SDS011;51680;49.806;18.774;2023-06-04T03:34:59;8.93;;;3.85;;
41043;SDS011;51680;49.806;18.774;2023-06-04T03:38:01;8.38;;;3.83;;
41043;SDS011;51680;49.806;18.774;2023-06-04T03:41:04;9.18;;;3.60;;
41043;SDS011;51680;49.806;18.774;2023-06-04T03:44:07;7.78;;;3.58;;
41043;SDS011;51680;49.806;18.774;2023-06-04T03:47:09;10.32;;;3.72;;
41043;SDS011;51680;49.806;18.774;2023-06-04T03:50:12;10.43;;;4.60;;
41043;SDS011;51680;49.806;18.774;2023-06-04T03:53:15;13.75;;;4.47;;
41043;SDS011;51680;49.806;18.774;2023-06-04T03:56:17;10.60;;;4.22;;
41043;SDS011;51680;49.806;18.774;2023-06-04T03:59:20;10.43;;;4.50;;
41043;SDS011;51680;49.806;18.774;2023-06-04T04:02:23;11.45;;;5.18;;
41043;SDS011;51680;49.806;18.774;2023-06-04T04:05:25;11.20;;;4.60;;
41043;SDS011;51680;49.806;18.774;2023-06-04T04:08:27;10.75;;;5.47;;
41043;SDS011;51680;49.806;18.774;2023-06-04T04:11:32;11.63;;;5.28;;
41043;SDS011;51680;49.806;18.774;2023-06-04T04:14:35;9.40;;;4.63;;
41043;SDS011;51680;49.806;18.774;2023-06-04T04:17:38;10.75;;;4.53;;
41043;SDS011;51680;49.806;18.774;2023-06-04T04:20:41;7.90;;;3.72;;
41043;SDS011;51680;49.806;18.774;2023-06-04T04:23:45;7.38;;;3.38;;
41043;SDS011;51680;49.806;18.774;2023-06-04T04:26:46;6.25;;;2.60;;
41043;SDS011;51680;49.806;18.774;2023-06-04T04:29:50;6.50;;;2.65;;
41043;SDS011;51680;49.806;18.774;2023-06-04T04:32:55;9.23;;;2.75;;
41043;SDS011;51680;49.806;18.774;2023-06-04T04:36:03;4.57;;;2.20;;
41043;SDS011;51680;49.806;18.774;2023-06-04T04:39:05;6.55;;;2.60;;
41043;SDS011;51680;49.806;18.774;2023-06-04T04:42:09;5.07;;;2.33;;
41043;SDS011;51680;49.806;18.774;2023-06-04T04:45:12;10.60;;;2.55;;
41043;SDS011;51680;49.806;18.774;2023-06-04T04:48:15;8.00;;;3.08;;
41043;SDS011;51680;49.806;18.774;2023-06-04T04:51:17;6.95;;;2.55;;
41043;SDS011;51680;49.806;18.774;2023-06-04T04:54:18;6.82;;;2.60;;
41043;SDS011;51680;49.806;18.774;2023-06-04T04:57:20;8.18;;;2.53;;
41043;SDS011;51680;49.806;18.774;2023-06-04T05:00:26;7.95;;;3.03;;
41043;SDS011;51680;49.806;18.774;2023-06-04T05:03:30;7.28;;;3.55;;
41043;SDS011;51680;49.806;18.774;2023-06-04T05:06:32;10.18;;;4.22;;
41043;SDS011;51680;49.806;18.774;2023-06-04T05:09:34;10.65;;;4.10;;
41043;SDS011;51680;49.806;18.774;2023-06-04T05:12:36;4.93;;;2.70;;
41043;SDS011;51680;49.806;18.774;2023-06-04T05:15:42;6.82;;;2.85;;
41043;SDS011;51680;49.806;18.774;2023-06-04T05:18:46;9.88;;;3.30;;
41043;SDS011;51680;49.806;18.774;2023-06-04T05:21:53;7.40;;;2.55;;
41043;SDS011;51680;49.806;18.774;2023-06-04T05:24:55;5.38;;;2.60;;
41043;SDS011;51680;49.806;18.774;2023-06-04T05:27:59;8.10;;;2.70;;
41043;SDS011;51680;49.806;18.774;2023-06-04T05:31:03;6.10;;;2.70;;
41043;SDS011;51680;49.806;18.774;2023-06-04T05:34:08;6.40;;;2.97;;
41043;SDS011;51680;49.806;18.774;2023-06-04T05:37:13;8.13;;;3.13;;
41043;SDS011;51680;49.806;18.774;2023-06-04T05:40:16;5.43;;;3.13;;
41043;SDS011;51680;49.806;18.774;2023-06-04T05:43:20;8.30;;;3.00;;
41043;SDS011;51680;49.806;18.774;2023-06-04T05:46:23;10.03;;;3.37;;
41043;SDS011;51680;49.806;18.774;2023-06-04T05:49:26;7.95;;;2.78;;
41043;SDS011;51680;49.806;18.774;2023-06-04T05:52:31;6.38;;;2.78;;
41043;SDS011;51680;49.806;18.774;2023-06-04T05:55:51;5.93;;;2.85;;
41043;SDS011;51680;49.806;18.774;2023-06-04T05:58:53;5.72;;;3.03;;
41043;SDS011;51680;49.806;18.774;2023-06-04T06:01:59;7.00;;;2.85;;
41043;SDS011;51680;49.806;18.774;2023-06-04T06:05:01;7.78;;;2.83;;
41043;SDS011;51680;49.806;18.774;2023-06-04T06:08:03;11.13;;;3.50;;
41043;SDS011;51680;49.806;18.774;2023-06-04T06:11:05;8.00;;;3.58;;
41043;SDS011;51680;49.806;18.774;2023-06-04T06:14:07;7.65;;;3.40;;
41043;SDS011;51680;49.806;18.774;2023-06-04T06:17:11;10.43;;;3.58;;
41043;SDS011;51680;49.806;18.774;2023-06-04T06:20:12;8.33;;;3.13;;
41043;SDS011;51680;49.806;18.774;2023-06-04T06:23:18;9.00;;;3.40;;
41043;SDS011;51680;49.806;18.774;2023-06-04T06:26:22;7.30;;;2.80;;
41043;SDS011;51680;49.806;18.774;2023-06-04T06:29:27;6.85;;;3.38;;
41043;SDS011;51680;49.806;18.774;2023-06-04T06:32:30;9.25;;;3.90;;
41043;SDS011;51680;49.806;18.774;2023-06-04T06:35:32;12.38;;;4.28;;
41043;SDS011;51680;49.806;18.774;2023-06-04T06:38:34;6.95;;;3.50;;
41043;SDS011;51680;49.806;18.774;2023-06-04T06:41:35;8.60;;;3.70;;
41043;SDS011;51680;49.806;18.774;2023-06-04T06:44:39;7.50;;;3.78;;
41043;SDS011;51680;49.806;18.774;2023-06-04T06:47:42;7.05;;;3.67;;
41043;SDS011;51680;49.806;18.774;2023-06-04T06:50:44;9.03;;;3.70;;
41043;SDS011;51680;49.806;18.774;2023-06-04T06:53:46;10.55;;;4.07;;
41043;SDS011;51680;49.806;18.774;2023-06-04T06:56:48;11.63;;;3.80;;
41043;SDS011;51680;49.806;18.774;2023-06-04T06:59:49;7.00;;;3.33;;
41043;SDS011;51680;49.806;18.774;2023-06-04T07:02:55;10.93;;;3.58;;
41043;SDS011;51680;49.806;18.774;2023-06-04T07:05:57;8.15;;;3.30;;
41043;SDS011;51680;49.806;18.774;2023-06-04T07:08:59;6.50;;;3.53;;
41043;SDS011;51680;49.806;18.774;2023-06-04T07:12:00;8.55;;;3.50;;
41043;SDS011;51680;49.806;18.774;2023-06-04T07:15:02;7.22;;;3.53;;
41043;SDS011;51680;49.806;18.774;2023-06-04T07:18:06;10.30;;;3.63;;
41043;SDS011;51680;49.806;18.774;2023-06-04T07:21:08;12.13;;;3.63;;
41043;SDS011;51680;49.806;18.774;2023-06-04T07:24:10;12.52;;;3.55;;
41043;SDS011;51680;49.806;18.774;2023-06-04T07:27:12;9.60;;;3.50;;
41043;SDS011;51680;49.806;18.774;2023-06-04T07:30:14;8.13;;;3.78;;
41043;SDS011;51680;49.806;18.774;2023-06-04T07:33:17;9.95;;;3.85;;
41043;SDS011;51680;49.806;18.774;2023-06-04T07:36:19;11.15;;;3.70;;
41043;SDS011;51680;49.806;18.774;2023-06-04T07:39:23;10.15;;;3.50;;
41043;SDS011;51680;49.806;18.774;2023-06-04T07:42:25;6.00;;;3.33;;
41043;SDS011;51680;49.806;18.774;2023-06-04T07:45:27;7.70;;;3.17;;
41043;SDS011;51680;49.806;18.774;2023-06-04T07:48:32;5.22;;;3.15;;
41043;SDS011;51680;49.806;18.774;2023-06-04T07:51:34;11.53;;;3.10;;
41043;SDS011;51680;49.806;18.774;2023-06-04T07:54:37;7.93;;;3.15;;
41043;SDS011;51680;49.806;18.774;2023-06-04T07:57:41;7.25;;;3.17;;
41043;SDS011;51680;49.806;18.774;2023-06-04T08:00:43;6.20;;;2.83;;
41043;SDS011;51680;49.806;18.774;2023-06-04T08:03:46;8.13;;;3.03;;
41043;SDS011;51680;49.806;18.774;2023-06-04T08:06:48;5.45;;;2.60;;
41043;SDS011;51680;49.806;18.774;2023-06-04T08:09:50;6.45;;;2.70;;
41043;SDS011;51680;49.806;18.774;2023-06-04T08:12:52;8.13;;;2.85;;
41043;SDS011;51680;49.806;18.774;2023-06-04T08:15:54;7.85;;;2.80;;
41043;SDS011;51680;49.806;18.774;2023-06-04T08:18:57;5.82;;;2.80;;
41043;SDS011;51680;49.806;18.774;2023-06-04T08:21:58;5.27;;;2.80;;
41043;SDS011;51680;49.806;18.774;2023-06-04T08:25:00;8.80;;;2.92;;
41043;SDS011;51680;49.806;18.774;2023-06-04T08:28:03;6.05;;;2.55;;
41043;SDS011;51680;49.806;18.774;2023-06-04T08:31:05;9.48;;;3.40;;
41043;SDS011;51680;49.806;18.774;2023-06-04T08:34:08;19.08;;;3.50;;
41043;SDS011;51680;49.806;18.774;2023-06-04T08:37:10;7.03;;;3.00;;
41043;SDS011;51680;49.806;18.774;2023-06-04T08:40:12;6.75;;;3.08;;
41043;SDS011;51680;49.806;18.774;2023-06-04T08:43:13;8.38;;;2.97;;
41043;SDS011;51680;49.806;18.774;2023-06-04T08:46:15;14.20;;;3.83;;
41043;SDS011;51680;49.806;18.774;2023-06-04T08:49:20;6.38;;;2.78;;
41043;SDS011;51680;49.806;18.774;2023-06-04T08:52:23;5.50;;;2.60;;
41043;SDS011;51680;49.806;18.774;2023-06-04T08:55:25;11.40;;;2.90;;
41043;SDS011;51680;49.806;18.774;2023-06-04T08:58:28;9.60;;;2.33;;
41043;SDS011;51680;49.806;18.774;2023-06-04T09:01:33;5.95;;;2.30;;
41043;SDS011;51680;49.806;18.774;2023-06-04T09:04:38;5.93;;;2.40;;
41043;SDS011;51680;49.806;18.774;2023-06-04T09:07:40;6.70;;;2.58;;
41043;SDS011;51680;49.806;18.774;2023-06-04T09:10:43;7.68;;;2.40;;
41043;SDS011;51680;49.806;18.774;2023-06-04T09:13:49;9.98;;;2.45;;
41043;SDS011;51680;49.806;18.774;2023-06-04T09:16:53;4.78;;;2.38;;
41043;SDS011;51680;49.806;18.774;2023-06-04T09:19:57;10.23;;;3.20;;
41043;SDS011;51680;49.806;18.774;2023-06-04T09:22:58;4.57;;;2.40;;
41043;SDS011;51680;49.806;18.774;2023-06-04T09:26:06;9.70;;;2.58;;
41043;SDS011;51680;49.806;18.774;2023-06-04T09:29:09;9.73;;;2.97;;
41043;SDS011;51680;49.806;18.774;2023-06-04T09:32:11;12.07;;;2.60;;
41043;SDS011;51680;49.806;18.774;2023-06-04T09:35:15;5.13;;;2.40;;
41043;SDS011;51680;49.806;18.774;2023-06-04T09:38:18;8.30;;;2.40;;
41043;SDS011;51680;49.806;18.774;2023-06-04T09:41:20;6.68;;;2.63;;
41043;SDS011;51680;49.806;18.774;2023-06-04T09:44:22;6.05;;;2.75;;
41043;SDS011;51680;49.806;18.774;2023-06-04T09:47:24;5.93;;;2.15;;
41043;SDS011;51680;49.806;18.774;2023-06-04T09:50:30;6.28;;;2.25;;
41043;SDS011;51680;49.806;18.774;2023-06-04T09:53:33;5.03;;;2.40;;
41043;SDS011;51680;49.806;18.774;2023-06-04T09:56:39;3.88;;;1.92;;
41043;SDS011;51680;49.806;18.774;2023-06-04T09:59:41;4.30;;;2.10;;
41043;SDS011;51680;49.806;18.774;2023-06-04T10:02:45;4.05;;;2.15;;
41043;SDS011;51680;49.806;18.774;2023-06-04T10:05:49;5.30;;;2.15;;
41043;SDS011;51680;49.806;18.774;2023-06-04T10:08:52;4.93;;;1.90;;
41043;SDS011;51680;49.806;18.774;2023-06-04T10:11:58;4.38;;;1.83;;
41043;SDS011;51680;49.806;18.774;2023-06-04T10:15:02;4.88;;;2.00;;
41043;SDS011;51680;49.806;18.774;2023-06-04T10:18:09;4.90;;;2.00;;
41043;SDS011;51680;49.806;18.774;2023-06-04T10:21:13;4.85;;;2.00;;
41043;SDS011;51680;49.806;18.774;2023-06-04T10:24:34;6.55;;;2.20;;
41043;SDS011;51680;49.806;18.774;2023-06-04T10:27:36;6.40;;;2.40;;
41043;SDS011;51680;49.806;18.774;2023-06-04T10:30:38;5.90;;;2.20;;
41043;SDS011;51680;49.806;18.774;2023-06-04T10:33:40;7.82;;;2.05;;
41043;SDS011;51680;49.806;18.774;2023-06-04T10:36:43;6.40;;;2.28;;
41043;SDS011;51680;49.806;18.774;2023-06-04T10:39:49;8.15;;;2.05;;
41043;SDS011;51680;49.806;18.774;2023-06-04T10:42:52;9.27;;;2.13;;
41043;SDS011;51680;49.806;18.774;2023-06-04T10:45:55;5.28;;;2.50;;
41043;SDS011;51680;49.806;18.774;2023-06-04T10:48:56;6.25;;;2.05;;
41043;SDS011;51680;49.806;18.774;2023-06-04T10:52:09;8.77;;;1.95;;
41043;SDS011;51680;49.806;18.774;2023-06-04T10:55:11;6.65;;;2.00;;
41043;SDS011;51680;49.806;18.774;2023-06-04T10:58:13;14.23;;;2.28;;
41043;SDS011;51680;49.806;18.774;2023-06-04T11:01:22;6.13;;;2.00;;
41043;SDS011;51680;49.806;18.774;2023-06-04T11:04:25;6.07;;;1.92;;
41043;SDS011;51680;49.806;18.774;2023-06-04T11:07:28;6.53;;;2.10;;
41043;SDS011;51680;49.806;18.774;2023-06-04T11:10:31;9.50;;;2.20;;
41043;SDS011;51680;49.806;18.774;2023-06-04T11:13:34;6.03;;;1.95;;
41043;SDS011;51680;49.806;18.774;2023-06-04T11:16:35;6.28;;;2.45;;
41043;SDS011;51680;49.806;18.774;2023-06-04T11:19:37;6.22;;;2.00;;
41043;SDS011;51680;49.806;18.774;2023-06-04T11:22:41;7.28;;;2.58;;
41043;SDS011;51680;49.806;18.774;2023-06-04T11:25:43;6.28;;;2.15;;
41043;SDS011;51680;49.806;18.774;2023-06-04T11:28:48;7.55;;;2.20;;
41043;SDS011;51680;49.806;18.774;2023-06-04T11:31:50;7.03;;;2.55;;
41043;SDS011;51680;49.806;18.774;2023-06-04T11:35:01;4.38;;;2.00;;
41043;SDS011;51680;49.806;18.774;2023-06-04T11:38:04;6.38;;;2.20;;
41043;SDS011;51680;49.806;18.774;2023-06-04T11:41:06;8.13;;;2.20;;
41043;SDS011;51680;49.806;18.774;2023-06-04T11:44:08;6.38;;;2.30;;
41043;SDS011;51680;49.806;18.774;2023-06-04T11:47:10;6.22;;;2.30;;
41043;SDS011;51680;49.806;18.774;2023-06-04T11:50:13;4.80;;;2.10;;
41043;SDS011;51680;49.806;18.774;2023-06-04T11:53:16;9.48;;;2.42;;
41043;SDS011;51680;49.806;18.774;2023-06-04T11:56:18;6.38;;;1.88;;
41043;SDS011;51680;49.806;18.774;2023-06-04T11:59:20;6.32;;;2.20;;
41043;SDS011;51680;49.806;18.774;2023-06-04T12:02:22;7.20;;;2.40;;
41043;SDS011;51680;49.806;18.774;2023-06-04T12:05:28;5.03;;;2.53;;
41043;SDS011;51680;49.806;18.774;2023-06-04T12:08:32;5.00;;;2.42;;
41043;SDS011;51680;49.806;18.774;2023-06-04T12:11:34;7.83;;;2.83;;
41043;SDS011;51680;49.806;18.774;2023-06-04T12:14:36;10.52;;;3.05;;
41043;SDS011;51680;49.806;18.774;2023-06-04T12:17:48;4.38;;;2.40;;
41043;SDS011;51680;49.806;18.774;2023-06-04T12:20:50;6.07;;;2.55;;
41043;SDS011;51680;49.806;18.774;2023-06-04T12:24:04;8.95;;;3.13;;
41043;SDS011;51680;49.806;18.774;2023-06-04T12:27:08;4.78;;;2.53;;
41043;SDS011;51680;49.806;18.774;2023-06-04T12:33:13;5.38;;;2.60;;
41043;SDS011;51680;49.806;18.774;2023-06-04T12:36:14;5.18;;;2.72;;
41043;SDS011;51680;49.806;18.774;2023-06-04T12:39:17;6.30;;;2.60;;
41043;SDS011;51680;49.806;18.774;2023-06-04T12:42:19;5.53;;;2.40;;
41043;SDS011;51680;49.806;18.774;2023-06-04T12:45:21;5.25;;;2.40;;
41043;SDS011;51680;49.806;18.774;2023-06-04T12:48:23;7.30;;;2.58;;
41043;SDS011;51680;49.806;18.774;2023-06-04T12:51:25;7.38;;;2.83;;
41043;SDS011;51680;49.806;18.774;2023-06-04T12:54:28;5.38;;;2.40;;
41043;SDS011;51680;49.806;18.774;2023-06-04T12:57:29;7.57;;;2.77;;
41043;SDS011;51680;49.806;18.774;2023-06-04T13:00:31;5.20;;;2.38;;
41043;SDS011;51680;49.806;18.774;2023-06-04T13:03:33;6.03;;;3.00;;
41043;SDS011;51680;49.806;18.774;2023-06-04T13:06:37;4.20;;;2.47;;
41043;SDS011;51680;49.806;18.774;2023-06-04T13:09:40;6.80;;;2.40;;
41043;SDS011;51680;49.806;18.774;2023-06-04T13:12:42;8.25;;;2.85;;
41043;SDS011;51680;49.806;18.774;2023-06-04T13:15:44;6.45;;;2.53;;
41043;SDS011;51680;49.806;18.774;2023-06-04T13:18:46;6.05;;;3.08;;
41043;SDS011;51680;49.806;18.774;2023-06-04T13:21:48;4.90;;;2.63;;
41043;SDS011;51680;49.806;18.774;2023-06-04T13:24:51;4.43;;;2.47;;
41043;SDS011;51680;49.806;18.774;2023-06-04T13:27:53;6.97;;;2.43;;
41043;SDS011;51680;49.806;18.774;2023-06-04T13:30:54;4.68;;;2.60;;
41043;SDS011;51680;49.806;18.774;2023-06-04T13:33:56;5.35;;;2.58;;
41043;SDS011;51680;49.806;18.774;2023-06-04T13:36:58;3.33;;;2.20;;
41043;SDS011;51680;49.806;18.774;2023-06-04T13:40:01;6.30;;;2.47;;
41043;SDS011;51680;49.806;18.774;2023-06-04T13:43:04;7.63;;;2.70;;
41043;SDS011;51680;49.806;18.774;2023-06-04T13:46:05;5.15;;;2.53;;
41043;SDS011;51680;49.806;18.774;2023-06-04T13:49:07;7.38;;;2.80;;
41043;SDS011;51680;49.806;18.774;2023-06-04T13:52:09;4.45;;;2.50;;
41043;SDS011;51680;49.806;18.774;2023-06-04T13:55:12;5.50;;;2.80;;
41043;SDS011;51680;49.806;18.774;2023-06-04T13:58:14;5.97;;;2.75;;
41043;SDS011;51680;49.806;18.774;2023-06-04T14:01:16;6.28;;;2.42;;
41043;SDS011;51680;49.806;18.774;2023-06-04T14:04:18;9.80;;;2.50;;
41043;SDS011;51680;49.806;18.774;2023-06-04T14:07:19;4.80;;;2.30;;
41043;SDS011;51680;49.806;18.774;2023-06-04T14:10:23;4.45;;;2.30;;
41043;SDS011;51680;49.806;18.774;2023-06-04T14:13:24;6.13;;;2.30;;
41043;SDS011;51680;49.806;18.774;2023-06-04T14:16:26;3.45;;;2.22;;
41043;SDS011;51680;49.806;18.774;2023-06-04T14:19:28;6.38;;;2.50;;
41043;SDS011;51680;49.806;18.774;2023-06-04T14:22:30;5.25;;;2.67;;
41043;SDS011;51680;49.806;18.774;2023-06-04T14:25:33;5.30;;;2.50;;
41043;SDS011;51680;49.806;18.774;2023-06-04T14:28:36;8.38;;;2.35;;
41043;SDS011;51680;49.806;18.774;2023-06-04T14:31:38;5.03;;;2.75;;
41043;SDS011;51680;49.806;18.774;2023-06-04T14:34:40;7.28;;;2.75;;
41043;SDS011;51680;49.806;18.774;2023-06-04T14:37:41;4.47;;;2.40;;
41043;SDS011;51680;49.806;18.774;2023-06-04T14:40:45;4.07;;;2.53;;
41043;SDS011;51680;49.806;18.774;2023-06-04T14:43:46;4.10;;;2.40;;
41043;SDS011;51680;49.806;18.774;2023-06-04T14:46:48;6.18;;;2.40;;
41043;SDS011;51680;49.806;18.774;2023-06-04T14:49:51;7.57;;;2.45;;
41043;SDS011;51680;49.806;18.774;2023-06-04T14:52:53;4.93;;;2.72;;
41043;SDS011;51680;49.806;18.774;2023-06-04T14:55:56;5.53;;;2.25;;
41043;SDS011;51680;49.806;18.774;2023-06-04T14:58:57;5.93;;;2.77;;
41043;SDS011;51680;49.806;18.774;2023-06-04T15:02:00;7.63;;;2.67;;
41043;SDS011;51680;49.806;18.774;2023-06-04T15:05:02;8.13;;;2.20;;
41043;SDS011;51680;49.806;18.774;2023-06-04T15:08:05;5.32;;;2.58;;
41043;SDS011;51680;49.806;18.774;2023-06-04T15:11:09;6.90;;;2.40;;
41043;SDS011;51680;49.806;18.774;2023-06-04T15:14:12;7.07;;;2.33;;
41043;SDS011;51680;49.806;18.774;2023-06-04T15:17:13;5.15;;;2.72;;
41043;SDS011;51680;49.806;18.774;2023-06-04T15:20:15;6.63;;;2.22;;
41043;SDS011;51680;49.806;18.774;2023-06-04T15:23:17;6.57;;;2.75;;
41043;SDS011;51680;49.806;18.774;2023-06-04T15:26:21;8.05;;;2.50;;
41043;SDS011;51680;49.806;18.774;2023-06-04T15:29:24;4.47;;;1.98;;
41043;SDS011;51680;49.806;18.774;2023-06-04T15:32:25;7.88;;;2.20;;
41043;SDS011;51680;49.806;18.774;2023-06-04T15:35:27;8.68;;;2.60;;
41043;SDS011;51680;49.806;18.774;2023-06-04T15:38:29;6.38;;;2.10;;
41043;SDS011;51680;49.806;18.774;2023-06-04T15:41:34;6.47;;;2.22;;
41043;SDS011;51680;49.806;18.774;2023-06-04T15:44:35;4.57;;;2.20;;
41043;SDS011;51680;49.806;18.774;2023-06-04T15:47:37;5.22;;;1.75;;
41043;SDS011;51680;49.806;18.774;2023-06-04T15:50:39;6.85;;;1.95;;
41043;SDS011;51680;49.806;18.774;2023-06-04T15:53:40;5.10;;;2.25;;
41043;SDS011;51680;49.806;18.774;2023-06-04T15:56:43;5.43;;;2.05;;
41043;SDS011;51680;49.806;18.774;2023-06-04T15:59:45;4.57;;;2.20;;
41043;SDS011;51680;49.806;18.774;2023-06-04T16:02:47;5.50;;;2.25;;
41043;SDS011;51680;49.806;18.774;2023-06-04T16:05:49;6.47;;;2.10;;
41043;SDS011;51680;49.806;18.774;2023-06-04T16:08:51;5.25;;;2.15;;
41043;SDS011;51680;49.806;18.774;2023-06-04T16:11:54;5.00;;;2.47;;
41043;SDS011;51680;49.806;18.774;2023-06-04T16:14:56;9.07;;;2.20;;
41043;SDS011;51680;49.806;18.774;2023-06-04T16:17:57;6.78;;;2.58;;
41043;SDS011;51680;49.806;18.774;2023-06-04T16:20:59;7.95;;;2.45;;
41043;SDS011;51680;49.806;18.774;2023-06-04T16:24:02;4.82;;;2.03;;
41043;SDS011;51680;49.806;18.774;2023-06-04T16:27:05;4.38;;;2.15;;
41043;SDS011;51680;49.806;18.774;2023-06-04T16:33:09;4.63;;;2.00;;
41043;SDS011;51680;49.806;18.774;2023-06-04T16:36:11;4.90;;;2.20;;
41043;SDS011;51680;49.806;18.774;2023-06-04T16:39:13;6.32;;;1.90;;
41043;SDS011;51680;49.806;18.774;2023-06-04T16:42:16;6.78;;;1.90;;
41043;SDS011;51680;49.806;18.774;2023-06-04T16:45:18;3.63;;;2.23;;
41043;SDS011;51680;49.806;18.774;2023-06-04T16:48:20;7.28;;;2.10;;
41043;SDS011;51680;49.806;18.774;2023-06-04T16:51:22;4.32;;;1.90;;
41043;SDS011;51680;49.806;18.774;2023-06-04T16:54:23;7.82;;;1.98;;
41043;SDS011;51680;49.806;18.774;2023-06-04T16:57:26;4.00;;;1.80;;
41043;SDS011;51680;49.806;18.774;2023-06-04T17:00:28;4.47;;;2.00;;
41043;SDS011;51680;49.806;18.774;2023-06-04T17:03:31;3.28;;;1.60;;
41043;SDS011;51680;49.806;18.774;2023-06-04T17:06:32;4.38;;;1.90;;
41043;SDS011;51680;49.806;18.774;2023-06-04T17:09:36;5.37;;;2.07;;
41043;SDS011;51680;49.806;18.774;2023-06-04T17:12:39;4.82;;;1.95;;
41043;SDS011;51680;49.806;18.774;2023-06-04T17:15:41;10.13;;;2.40;;
41043;SDS011;51680;49.806;18.774;2023-06-04T17:18:43;5.65;;;2.25;;
41043;SDS011;51680;49.806;18.774;2023-06-04T17:21:46;3.97;;;1.95;;
41043;SDS011;51680;49.806;18.774;2023-06-04T17:24:48;4.82;;;1.98;;
41043;SDS011;51680;49.806;18.774;2023-06-04T17:27:51;6.38;;;2.35;;
41043;SDS011;51680;49.806;18.774;2023-06-04T17:30:53;4.30;;;1.97;;
41043;SDS011;51680;49.806;18.774;2023-06-04T17:33:55;6.85;;;2.50;;
41043;SDS011;51680;49.806;18.774;2023-06-04T17:36:56;6.22;;;2.13;;
41043;SDS011;51680;49.806;18.774;2023-06-04T17:40:00;8.13;;;2.30;;
41043;SDS011;51680;49.806;18.774;2023-06-04T17:43:03;4.95;;;2.30;;
41043;SDS011;51680;49.806;18.774;2023-06-04T17:46:05;4.53;;;2.47;;
41043;SDS011;51680;49.806;18.774;2023-06-04T17:49:06;5.45;;;2.50;;
41043;SDS011;51680;49.806;18.774;2023-06-04T17:52:10;7.43;;;2.37;;
41043;SDS011;51680;49.806;18.774;2023-06-04T17:55:30;4.90;;;2.45;;
41043;SDS011;51680;49.806;18.774;2023-06-04T17:58:33;5.25;;;2.90;;
41043;SDS011;51680;49.806;18.774;2023-06-04T18:01:35;7.90;;;2.87;;
41043;SDS011;51680;49.806;18.774;2023-06-04T18:04:38;6.03;;;2.55;;
41043;SDS011;51680;49.806;18.774;2023-06-04T18:07:39;9.02;;;3.00;;
41043;SDS011;51680;49.806;18.774;2023-06-04T18:10:41;8.93;;;3.10;;